createdAt,value
2023-05-14T00:01:36.130Z,101231.97
2023-05-14T00:04:03.697Z,101231.06
2023-05-14T00:06:30.527Z,101228.22
2023-05-14T00:08:57.421Z,101222.09
2023-05-14T00:11:24.119Z,101229.13
2023-05-14T00:13:50.991Z,101233.53
2023-05-14T00:16:17.674Z,101233.53
2023-05-14T00:18:44.360Z,101225.63
2023-05-14T00:21:11.079Z,101228.22
2023-05-14T00:23:37.676Z,101224.75
2023-05-14T00:26:04.578Z,101218.63
2023-05-14T00:28:31.208Z,101218.53
2023-05-14T00:30:57.927Z,101220.16
2023-05-14T00:33:24.717Z,101222.78
2023-05-14T00:35:51.764Z,101224.56
2023-05-14T00:38:19.485Z,101224.59
2023-05-14T00:40:51.835Z,101217.59
2023-05-14T00:43:20.706Z,101216.72
2023-05-14T00:45:52.254Z,101217.66
2023-05-14T00:48:20.137Z,101214.16
2023-05-14T00:50:47.112Z,101210.59
2023-05-14T00:53:14.058Z,101218.19
2023-05-14T00:55:42.211Z,101207.66
2023-05-14T00:58:13.689Z,101208.56
2023-05-14T01:00:41.569Z,101208.56
2023-05-14T01:03:09.289Z,101213.59
2023-05-14T01:06:02.804Z,101206.59
2023-05-14T01:09:23.793Z,101201.25
2023-05-14T01:12:02.868Z,101202.16
2023-05-14T01:14:37.703Z,101196.91
2023-05-14T01:17:06.201Z,101193.31
2023-05-14T01:19:52.108Z,101196.59
2023-05-14T01:22:18.775Z,101192.03
2023-05-14T01:24:45.404Z,101193.72
2023-05-14T01:27:21.159Z,101194.56
2023-05-14T01:30:08.654Z,101197.28
2023-05-14T01:32:36.640Z,101193.72
2023-05-14T01:35:04.487Z,101189.28
2023-05-14T01:37:32.495Z,101183.13
2023-05-14T01:40:00.423Z,101183.03
2023-05-14T01:42:28.565Z,101183.06
2023-05-14T01:44:56.055Z,101183.06
2023-05-14T01:47:22.728Z,101173.50
2023-05-14T01:49:49.479Z,101174.28
2023-05-14T01:52:20.862Z,101165.50
2023-05-14T01:54:48.635Z,101174.09
2023-05-14T01:57:15.496Z,101172.38
2023-05-14T01:59:42.089Z,101165.41
2023-05-14T02:02:08.652Z,101158.50
2023-05-14T02:04:35.687Z,101163.59
2023-05-14T02:07:02.327Z,101160.78
2023-05-14T02:09:29.217Z,101160.78
2023-05-14T02:11:55.852Z,101169.38
2023-05-14T02:14:22.520Z,101159.69
2023-05-14T02:16:49.126Z,101159.75
2023-05-14T02:19:15.786Z,101160.72
2023-05-14T02:21:42.393Z,101156.25
2023-05-14T02:24:08.960Z,101152.78
2023-05-14T02:26:35.526Z,101160.59
2023-05-14T02:29:02.140Z,101158.78
2023-05-14T02:31:28.869Z,101162.88
2023-05-14T02:33:55.773Z,101163.53
2023-05-14T02:36:22.774Z,101163.56
2023-05-14T02:38:49.706Z,101145.22
2023-05-14T02:41:16.431Z,101154.88
2023-05-14T02:43:43.036Z,101160.72
2023-05-14T02:46:09.636Z,101153.00
2023-05-14T02:48:36.261Z,101155.69
2023-05-14T02:51:02.918Z,101150.47
2023-05-14T02:53:29.576Z,101152.25
2023-05-14T02:55:56.231Z,101148.78
2023-05-14T02:58:23.379Z,101156.72
2023-05-14T03:00:54.059Z,101150.50
2023-05-14T03:03:21.300Z,101155.53
2023-05-14T03:05:48.430Z,101151.84
2023-05-14T03:08:15.102Z,101149.19
2023-05-14T03:10:41.719Z,101146.56
2023-05-14T03:13:08.362Z,101151.16
2023-05-14T03:15:35.057Z,101153.69
2023-05-14T03:18:01.687Z,101151.78
2023-05-14T03:20:28.402Z,101152.59
2023-05-14T03:22:56.149Z,101154.44
2023-05-14T03:25:22.873Z,101146.81
2023-05-14T03:27:49.546Z,101146.81
2023-05-14T03:30:17.421Z,101146.91
2023-05-14T03:32:45.479Z,101144.53
2023-05-14T03:35:12.190Z,101152.41
2023-05-14T03:37:38.797Z,101148.63
2023-05-14T03:40:06.349Z,101158.09
2023-05-14T03:42:32.938Z,101150.88
2023-05-14T03:44:59.656Z,101150.91
2023-05-14T03:47:26.345Z,101140.44
2023-05-14T03:49:53.545Z,101145.66
2023-05-14T03:52:20.122Z,101146.63
2023-05-14T03:54:46.812Z,101153.63
2023-05-14T03:57:15.003Z,101148.25
2023-05-14T03:59:41.623Z,101148.34
2023-05-14T04:02:08.274Z,101150.03
2023-05-14T04:04:34.981Z,101144.84
2023-05-14T04:07:02.488Z,101147.41
2023-05-14T04:09:29.108Z,101147.69
2023-05-14T04:11:56.614Z,101146.13
2023-05-14T04:14:23.331Z,101148.03
2023-05-14T04:16:49.989Z,101152.19
2023-05-14T04:19:16.706Z,101151.91
2023-05-14T04:21:43.450Z,101145.84
2023-05-14T04:24:09.955Z,101151.69
2023-05-14T04:26:36.518Z,101149.00
2023-05-14T04:29:03.479Z,101137.84
2023-05-14T04:31:30.476Z,101144.09
2023-05-14T04:33:57.099Z,101147.50
2023-05-14T04:36:23.809Z,101143.06
2023-05-14T04:38:50.678Z,101142.16
2023-05-14T04:41:17.342Z,101144.75
2023-05-14T04:43:43.865Z,101143.16
2023-05-14T04:46:10.496Z,101143.19
2023-05-14T04:48:37.363Z,101139.84
2023-05-14T04:51:05.618Z,101143.56
2023-05-14T04:53:33.745Z,101143.66
2023-05-14T04:56:00.388Z,101142.88
2023-05-14T04:58:29.122Z,101149.00
2023-05-14T05:00:55.720Z,101145.53
2023-05-14T05:03:22.433Z,101145.69
2023-05-14T05:05:49.231Z,101151.97
2023-05-14T05:08:15.989Z,101142.41
2023-05-14T05:10:42.537Z,101149.38
2023-05-14T05:13:09.118Z,101151.16
2023-05-14T05:15:35.787Z,101151.34
2023-05-14T05:18:02.534Z,101152.22
2023-05-14T05:20:29.218Z,101146.16
2023-05-14T05:22:55.758Z,101141.28
2023-05-14T05:25:22.406Z,101141.47
2023-05-14T05:27:49.042Z,101150.25
2023-05-14T05:30:18.026Z,101146.22
2023-05-14T05:32:44.983Z,101140.38
2023-05-14T05:35:11.954Z,101144.16
2023-05-14T05:37:38.564Z,101148.66
2023-05-14T05:40:06.491Z,101148.78
2023-05-14T05:42:33.089Z,101140.31
2023-05-14T05:44:59.650Z,101146.59
2023-05-14T05:47:26.393Z,101141.41
2023-05-14T05:49:53.999Z,101146.75
2023-05-14T05:52:20.696Z,101141.53
2023-05-14T05:54:47.356Z,101145.00
2023-05-14T05:57:13.945Z,101150.16
2023-05-14T05:59:40.535Z,101143.34
2023-05-14T06:02:07.245Z,101143.41
2023-05-14T06:04:33.813Z,101148.69
2023-05-14T06:07:00.504Z,101154.91
2023-05-14T06:09:27.053Z,101147.91
2023-05-14T06:11:53.580Z,101152.22
2023-05-14T06:14:20.163Z,101154.03
2023-05-14T06:16:46.866Z,101162.78
2023-05-14T06:19:13.835Z,101157.59
2023-05-14T06:21:40.759Z,101151.47
2023-05-14T06:24:07.543Z,101158.47
2023-05-14T06:26:34.141Z,101161.13
2023-05-14T06:29:01.081Z,101152.34
2023-05-14T06:31:27.705Z,101154.06
2023-05-14T06:33:54.286Z,101155.03
2023-05-14T06:36:21.350Z,101162.00
2023-05-14T06:38:47.937Z,101163.81
2023-05-14T06:41:14.554Z,101163.75
2023-05-14T06:43:41.166Z,101163.84
2023-05-14T06:46:07.690Z,101161.19
2023-05-14T06:48:34.321Z,101155.09
2023-05-14T06:51:01.039Z,101156.88
2023-05-14T06:53:27.565Z,101154.31
2023-05-14T06:55:54.247Z,101149.06
2023-05-14T06:58:20.939Z,101151.66
2023-05-14T07:00:48.448Z,101152.59
2023-05-14T07:03:15.039Z,101150.84
2023-05-14T07:05:42.090Z,101143.00
2023-05-14T07:08:08.759Z,101138.66
2023-05-14T07:10:35.459Z,101143.00
2023-05-14T07:13:03.311Z,101141.25
2023-05-14T07:15:29.996Z,101143.91
2023-05-14T07:17:56.937Z,101137.78
2023-05-14T07:20:26.853Z,101128.13
2023-05-14T07:22:53.824Z,101130.75
2023-05-14T07:25:20.420Z,101127.25
2023-05-14T07:27:47.101Z,101128.97
2023-05-14T07:30:18.086Z,101123.72
2023-05-14T07:32:44.864Z,101123.63
2023-05-14T07:35:12.446Z,101128.00
2023-05-14T07:37:39.238Z,101122.69
2023-05-14T07:40:06.458Z,101120.91
2023-05-14T07:42:37.177Z,101125.28
2023-05-14T07:45:05.584Z,101119.94
2023-05-14T07:47:33.264Z,101116.38
2023-05-14T07:49:59.973Z,101117.25
2023-05-14T07:52:26.673Z,101114.69
2023-05-14T07:54:53.532Z,101107.53
2023-05-14T07:57:20.286Z,101106.59
2023-05-14T07:59:48.546Z,101098.72
2023-05-14T08:02:16.845Z,101109.91
2023-05-14T08:04:43.871Z,101095.97
2023-05-14T08:07:11.102Z,101102.00
2023-05-14T08:09:37.809Z,101103.63
2023-05-14T08:12:04.896Z,101102.78
2023-05-14T08:14:31.494Z,101102.50
2023-05-14T08:16:58.241Z,101109.31
2023-05-14T08:19:27.204Z,101104.13
2023-05-14T08:21:53.914Z,101098.81
2023-05-14T08:24:20.805Z,101098.63
2023-05-14T08:26:47.359Z,101099.50
2023-05-14T08:29:16.138Z,101100.28
2023-05-14T08:31:43.370Z,101104.47
2023-05-14T08:34:10.024Z,101096.47
2023-05-14T08:36:36.581Z,101100.25
2023-05-14T08:39:28.508Z,101095.03
2023-05-14T08:41:58.244Z,101102.00
2023-05-14T08:44:45.635Z,101100.03
2023-05-14T08:47:15.428Z,101091.31
2023-05-14T08:49:44.988Z,101091.41
2023-05-14T08:52:12.383Z,101097.31
2023-05-14T08:54:40.296Z,101083.91
2023-05-14T08:57:10.020Z,101083.75
2023-05-14T08:59:37.002Z,101079.31
2023-05-14T09:02:06.759Z,101092.19
2023-05-14T09:04:34.407Z,101084.06
2023-05-14T09:07:03.972Z,101081.41
2023-05-14T09:09:31.281Z,101079.16
2023-05-14T09:11:57.919Z,101071.06
2023-05-14T09:14:24.636Z,101068.75
2023-05-14T09:16:51.690Z,101076.56
2023-05-14T09:19:19.450Z,101072.84
2023-05-14T09:21:47.721Z,101072.53
2023-05-14T09:24:22.223Z,101065.44
2023-05-14T09:26:57.024Z,101064.44
2023-05-14T09:29:28.842Z,101064.25
2023-05-14T09:31:56.825Z,101065.53
2023-05-14T09:34:28.664Z,101062.91
2023-05-14T09:37:03.756Z,101065.06
2023-05-14T09:39:31.794Z,101058.50
2023-05-14T09:41:58.485Z,101059.00
2023-05-14T09:44:25.652Z,101065.47
2023-05-14T09:46:53.132Z,101059.16
2023-05-14T09:49:19.960Z,101057.66
2023-05-14T09:51:46.848Z,101054.28
2023-05-14T09:54:13.424Z,101052.34
2023-05-14T09:56:40.295Z,101047.72
2023-05-14T09:59:32.781Z,101053.75
2023-05-14T10:02:00.179Z,101053.94
2023-05-14T10:04:26.881Z,101045.78
2023-05-14T10:06:54.785Z,101051.38
2023-05-14T10:09:26.133Z,101049.66
2023-05-14T10:11:54.215Z,101051.50
2023-05-14T10:14:33.589Z,101051.22
2023-05-14T10:17:03.111Z,101035.94
2023-05-14T10:19:35.180Z,101041.00
2023-05-14T10:22:07.661Z,101035.38
2023-05-14T10:24:35.318Z,101030.78
2023-05-14T10:27:02.354Z,101026.72
2023-05-14T10:29:34.407Z,101024.09
2023-05-14T10:32:06.279Z,101025.56
2023-05-14T10:34:41.446Z,101027.31
2023-05-14T10:37:10.784Z,101021.97
2023-05-14T10:39:49.466Z,101021.47
2023-05-14T10:42:45.362Z,101017.72
2023-05-14T10:45:14.910Z,101017.03
2023-05-14T10:47:47.120Z,101009.56
2023-05-14T10:50:15.749Z,101012.38
2023-05-14T10:52:43.883Z,101003.28
2023-05-14T10:55:14.272Z,101009.47
2023-05-14T10:57:43.391Z,101016.47
2023-05-14T11:00:11.356Z,101003.94
2023-05-14T11:02:40.962Z,100999.13
2023-05-14T11:05:13.778Z,100992.25
2023-05-14T11:07:42.388Z,101000.84
2023-05-14T11:10:12.108Z,101006.41
2023-05-14T11:12:41.182Z,100994.56
2023-05-14T11:15:28.285Z,100989.94
2023-05-14T11:17:55.462Z,100992.78
2023-05-14T11:20:22.573Z,100987.28
2023-05-14T11:22:51.663Z,100994.63
2023-05-14T11:25:18.915Z,100983.34
2023-05-14T11:27:46.984Z,100994.19
2023-05-14T11:30:18.920Z,100989.00
2023-05-14T11:32:47.116Z,100981.94
2023-05-14T11:35:14.836Z,100984.94
2023-05-14T11:37:42.187Z,100976.97
2023-05-14T11:40:14.540Z,100973.44
2023-05-14T11:42:41.794Z,100976.09
2023-05-14T11:45:11.984Z,100976.78
2023-05-14T11:47:40.641Z,100976.22
2023-05-14T11:50:09.394Z,100976.78
2023-05-14T11:52:41.468Z,100970.16
2023-05-14T11:55:14.566Z,100956.56
2023-05-14T11:57:41.316Z,100971.00
2023-05-14T12:00:21.461Z,100959.97
2023-05-14T12:02:50.018Z,100959.19
2023-05-14T12:05:17.213Z,100953.34
2023-05-14T12:07:47.746Z,100962.50
2023-05-14T12:10:15.000Z,100960.47
2023-05-14T12:12:46.062Z,100949.53
2023-05-14T12:15:14.093Z,100946.56
2023-05-14T12:17:50.417Z,100951.06
2023-05-14T12:20:17.406Z,100947.91
2023-05-14T12:22:44.118Z,100949.41
2023-05-14T12:25:14.325Z,100947.81
2023-05-14T12:27:44.755Z,100942.66
2023-05-14T12:30:20.651Z,100948.22
2023-05-14T12:32:52.717Z,100940.44
2023-05-14T12:35:21.556Z,100943.47
2023-05-14T12:37:48.236Z,100948.84
2023-05-14T12:40:14.965Z,100934.28
2023-05-14T12:42:41.885Z,100934.88
2023-05-14T12:45:09.026Z,100941.19
2023-05-14T12:47:36.782Z,100931.59
2023-05-14T12:50:04.019Z,100923.22
2023-05-14T12:55:01.237Z,100917.56
2023-05-14T12:57:28.286Z,100920.81
2023-05-14T12:59:55.219Z,100920.53
2023-05-14T13:02:21.938Z,100915.09
2023-05-14T13:04:48.551Z,100895.41
2023-05-14T13:07:15.529Z,100895.94
2023-05-14T13:09:42.171Z,100898.41
2023-05-14T13:12:09.209Z,100903.22
2023-05-14T13:14:36.434Z,100893.72
2023-05-14T13:17:04.888Z,100896.63
2023-05-14T13:19:31.637Z,100890.69
2023-05-14T13:21:58.331Z,100890.41
2023-05-14T13:24:27.819Z,100889.31
2023-05-14T13:26:54.457Z,100882.53
2023-05-14T13:29:20.979Z,100882.16
2023-05-14T13:31:47.968Z,100876.78
2023-05-14T13:34:14.691Z,100874.59
2023-05-14T13:36:43.478Z,100875.44
2023-05-14T13:39:14.464Z,100877.06
2023-05-14T13:41:41.825Z,100868.97
2023-05-14T13:44:08.412Z,100865.06
2023-05-14T13:46:35.119Z,100856.97
2023-05-14T13:49:01.835Z,100871.34
2023-05-14T13:51:28.533Z,100864.78
2023-05-14T13:53:55.787Z,100864.00
2023-05-14T13:56:22.810Z,100858.16
2023-05-14T13:58:49.753Z,100855.16
2023-05-14T14:01:16.422Z,100849.41
2023-05-14T14:03:43.066Z,100842.88
2023-05-14T14:06:09.650Z,100843.16
2023-05-14T14:08:36.434Z,100837.66
2023-05-14T14:11:03.107Z,100829.56
2023-05-14T14:13:29.668Z,100833.75
2023-05-14T14:15:56.856Z,100821.78
2023-05-14T14:18:23.448Z,100824.59
2023-05-14T14:20:50.066Z,100825.94
2023-05-14T14:23:16.740Z,100817.72
2023-05-14T14:25:43.546Z,100835.03
2023-05-14T14:28:10.286Z,100827.44
2023-05-14T14:30:36.885Z,100822.13
2023-05-14T14:33:03.695Z,100817.13
2023-05-14T14:35:30.798Z,100813.94
2023-05-14T14:37:57.394Z,100802.84
2023-05-14T14:40:24.425Z,100804.69
2023-05-14T14:42:51.040Z,100812.50
2023-05-14T14:45:17.788Z,100812.38
2023-05-14T14:47:46.323Z,100817.59
2023-05-14T14:50:13.678Z,100830.31
2023-05-14T14:52:45.474Z,100817.28
2023-05-14T14:55:13.052Z,100823.31
2023-05-14T14:57:39.917Z,100811.56
2023-05-14T15:00:07.353Z,100815.91
2023-05-14T15:02:34.756Z,100814.66
2023-05-14T15:05:01.509Z,100814.50
2023-05-14T15:07:29.575Z,100817.75
2023-05-14T15:09:56.296Z,100818.19
2023-05-14T15:12:23.038Z,100810.75
2023-05-14T15:14:49.631Z,100816.75
2023-05-14T15:17:16.213Z,100822.03
2023-05-14T15:19:42.961Z,100824.97
2023-05-14T15:22:09.671Z,100817.78
2023-05-14T15:24:36.328Z,100823.47
2023-05-14T15:27:02.954Z,100816.09
2023-05-14T15:29:29.577Z,100813.72
2023-05-14T15:31:56.756Z,100809.63
2023-05-14T15:34:23.601Z,100812.78
2023-05-14T15:36:50.507Z,100811.34
2023-05-14T15:39:17.124Z,100806.75
2023-05-14T15:41:45.613Z,100801.56
2023-05-14T15:44:12.315Z,100795.00
2023-05-14T15:46:39.033Z,100796.72
2023-05-14T15:49:06.023Z,100796.56
2023-05-14T15:51:32.868Z,100801.56
2023-05-14T15:53:59.464Z,100789.78
2023-05-14T15:56:26.741Z,100789.84
2023-05-14T15:58:53.417Z,100782.16
2023-05-14T16:01:20.101Z,100791.50
2023-05-14T16:03:46.888Z,100781.13
2023-05-14T16:06:13.847Z,100782.97
2023-05-14T16:08:40.530Z,100781.03
2023-05-14T16:11:07.667Z,100781.00
2023-05-14T16:13:35.733Z,100774.94
2023-05-14T16:16:02.500Z,100783.06
2023-05-14T16:18:29.651Z,100790.13
2023-05-14T16:20:56.451Z,100782.00
2023-05-14T16:23:23.039Z,100782.97
2023-05-14T16:25:50.125Z,100783.56
2023-05-14T16:28:16.945Z,100775.78
2023-05-14T16:30:43.677Z,100779.97
2023-05-14T16:33:10.432Z,100780.94
2023-05-14T16:35:39.340Z,100773.19
2023-05-14T16:38:06.020Z,100771.34
2023-05-14T16:40:32.681Z,100773.94
2023-05-14T16:42:59.315Z,100767.69
2023-05-14T16:45:26.211Z,100764.47
2023-05-14T16:47:53.506Z,100765.94
2023-05-14T16:50:20.373Z,100766.03
2023-05-14T16:52:46.962Z,100762.78
2023-05-14T16:55:13.619Z,100761.88
2023-05-14T16:57:40.441Z,100761.03
2023-05-14T17:00:07.810Z,100759.59
2023-05-14T17:02:34.469Z,100756.69
2023-05-14T17:05:01.715Z,100755.66
2023-05-14T17:07:28.418Z,100765.22
2023-05-14T17:09:55.185Z,100759.53
2023-05-14T17:12:21.819Z,100756.16
2023-05-14T17:14:48.409Z,100757.88
2023-05-14T17:17:15.014Z,100755.97
2023-05-14T17:19:42.330Z,100758.09
2023-05-14T17:22:09.109Z,100759.25
2023-05-14T17:24:36.469Z,100758.59
2023-05-14T17:27:03.329Z,100753.34
2023-05-14T17:29:29.951Z,100760.47
2023-05-14T17:31:56.569Z,100758.00
2023-05-14T17:34:23.357Z,100758.13
2023-05-14T17:36:50.390Z,100759.44
2023-05-14T17:39:16.990Z,100759.94
2023-05-14T17:41:43.739Z,100759.00
2023-05-14T17:44:12.705Z,100764.22
2023-05-14T17:46:39.992Z,100756.28
2023-05-14T17:49:06.608Z,100764.81
2023-05-14T17:51:33.292Z,100765.84
2023-05-14T17:53:59.907Z,100758.56
2023-05-14T17:56:26.600Z,100769.94
2023-05-14T17:58:53.183Z,100765.59
2023-05-14T18:01:19.836Z,100765.19
2023-05-14T18:03:46.743Z,100760.63
2023-05-14T18:06:13.477Z,100765.06
2023-05-14T18:08:40.949Z,100765.47
2023-05-14T18:11:07.489Z,100758.50
2023-05-14T18:13:34.182Z,100752.50
2023-05-14T18:16:01.165Z,100758.81
2023-05-14T18:18:27.797Z,100756.41
2023-05-14T18:20:54.530Z,100764.41
2023-05-14T18:23:21.273Z,100762.03
2023-05-14T18:25:48.232Z,100768.09
2023-05-14T18:28:15.615Z,100769.13
2023-05-14T18:30:43.467Z,100766.69
2023-05-14T18:33:10.320Z,100769.47
2023-05-14T18:35:37.319Z,100768.75
2023-05-14T18:38:04.141Z,100759.34
2023-05-14T18:40:30.830Z,100772.44
2023-05-14T18:42:58.030Z,100771.81
2023-05-14T18:45:25.010Z,100781.75
2023-05-14T18:47:52.157Z,100780.97
2023-05-14T18:50:19.016Z,100783.94
2023-05-14T18:52:45.592Z,100784.38
2023-05-14T18:55:15.580Z,100790.81
2023-05-14T18:57:42.323Z,100798.28
2023-05-14T19:00:09.595Z,100797.59
2023-05-14T19:02:36.492Z,100801.16
2023-05-14T19:05:03.252Z,100805.97
2023-05-14T19:07:31.049Z,100807.72
2023-05-14T19:09:57.567Z,100806.22
2023-05-14T19:12:24.153Z,100812.44
2023-05-14T19:14:50.801Z,100810.59
2023-05-14T19:17:18.568Z,100813.03
2023-05-14T19:19:47.014Z,100816.59
2023-05-14T19:22:13.691Z,100811.25
2023-05-14T19:24:40.352Z,100812.88
2023-05-14T19:27:07.708Z,100810.31
2023-05-14T19:29:36.788Z,100812.84
2023-05-14T19:32:04.625Z,100811.00
2023-05-14T19:34:31.310Z,100803.94
2023-05-14T19:36:58.001Z,100806.56
2023-05-14T19:39:24.920Z,100807.41
2023-05-14T19:41:51.531Z,100806.41
2023-05-14T19:44:18.287Z,100804.75
2023-05-14T19:46:45.131Z,100802.41
2023-05-14T19:49:12.119Z,100802.34
2023-05-14T19:51:38.660Z,100807.72
2023-05-14T19:54:05.344Z,100801.50
2023-05-14T19:56:32.016Z,100800.66
2023-05-14T19:58:58.787Z,100798.97
2023-05-14T20:01:26.694Z,100793.78
2023-05-14T20:03:53.315Z,100793.78
2023-05-14T20:06:19.873Z,100790.22
2023-05-14T20:08:46.453Z,100792.00
2023-05-14T20:11:15.326Z,100788.53
2023-05-14T20:13:41.946Z,100786.81
2023-05-14T20:16:08.627Z,100784.31
2023-05-14T20:18:35.269Z,100787.84
2023-05-14T20:21:01.928Z,100782.50
2023-05-14T20:23:28.558Z,100780.75
2023-05-14T20:25:55.645Z,100778.28
2023-05-14T20:28:22.249Z,100778.22
2023-05-14T20:30:48.878Z,100769.63
2023-05-14T20:33:15.843Z,100768.00
2023-05-14T20:35:43.893Z,100773.19
2023-05-14T20:38:12.555Z,100770.53
2023-05-14T20:40:39.520Z,100761.81
2023-05-14T20:43:06.185Z,100768.03
2023-05-14T20:45:32.844Z,100774.25
2023-05-14T20:47:59.448Z,100770.88
2023-05-14T20:50:27.817Z,100760.47
2023-05-14T20:52:55.286Z,100759.63
2023-05-14T20:55:22.312Z,100764.97
2023-05-14T20:57:49.815Z,100762.34
2023-05-14T21:00:17.598Z,100754.44
2023-05-14T21:02:44.350Z,100752.69
2023-05-14T21:05:14.521Z,100752.88
2023-05-14T21:07:41.319Z,100763.25
2023-05-14T21:10:09.104Z,100757.88
2023-05-14T21:12:40.630Z,100757.03
2023-05-14T21:15:09.218Z,100751.84
2023-05-14T21:17:35.901Z,100759.75
2023-05-14T21:20:02.838Z,100759.97
2023-05-14T21:22:29.652Z,100752.28
2023-05-14T21:24:56.295Z,100751.38
2023-05-14T21:27:23.218Z,100755.69
2023-05-14T21:29:49.846Z,100754.94
2023-05-14T21:32:16.535Z,100754.03
2023-05-14T21:34:43.307Z,100744.56
2023-05-14T21:37:10.035Z,100746.25
2023-05-14T21:39:36.553Z,100742.66
2023-05-14T21:42:03.325Z,100734.84
2023-05-14T21:44:29.883Z,100739.25
2023-05-14T21:46:56.439Z,100729.63
2023-05-14T21:49:23.041Z,100732.22
2023-05-14T21:51:53.065Z,100723.59
2023-05-14T21:54:20.776Z,100714.88
2023-05-14T21:56:47.669Z,100721.81
2023-05-14T21:59:14.373Z,100721.00
2023-05-14T22:02:04.963Z,100722.81
2023-05-14T22:04:27.595Z,100720.28
2023-05-14T22:06:54.279Z,100723.78
2023-05-14T22:09:20.890Z,100726.44
2023-05-14T22:11:47.567Z,100727.28
2023-05-14T22:14:14.205Z,100725.53
2023-05-14T22:16:40.923Z,100728.28
2023-05-14T22:19:07.556Z,100726.50
2023-05-14T22:21:34.144Z,100729.13
2023-05-14T22:24:00.824Z,100728.19
2023-05-14T22:26:27.417Z,100737.78
2023-05-14T22:28:54.066Z,100726.53
2023-05-14T22:31:20.901Z,100728.31
2023-05-14T22:33:47.583Z,100729.25
2023-05-14T22:36:14.243Z,100729.44
2023-05-14T22:38:41.274Z,100729.59
2023-05-14T22:41:07.970Z,100723.50
2023-05-14T22:43:34.598Z,100716.53
2023-05-14T22:46:01.355Z,100713.88
2023-05-14T22:48:28.099Z,100707.75
2023-05-14T22:50:54.912Z,100714.75
2023-05-14T22:53:21.528Z,100713.00
2023-05-14T22:55:48.165Z,100708.69
2023-05-14T22:58:14.705Z,100711.34
2023-05-14T23:00:41.271Z,100701.78
2023-05-14T23:03:07.921Z,100700.94
2023-05-14T23:05:34.623Z,100701.81
2023-05-14T23:08:01.293Z,100698.31
2023-05-14T23:10:27.961Z,100697.50
2023-05-14T23:12:54.558Z,100693.22
2023-05-14T23:15:21.105Z,100694.03
2023-05-14T23:17:47.901Z,100694.09
2023-05-14T23:20:14.858Z,100696.78
2023-05-14T23:22:41.433Z,100690.69
2023-05-14T23:25:08.639Z,100688.06
2023-05-14T23:27:35.541Z,100686.38
2023-05-14T23:30:03.442Z,100682.03
2023-05-14T23:32:30.057Z,100689.06
2023-05-14T23:34:56.783Z,100681.25
2023-05-14T23:37:23.463Z,100684.72
2023-05-14T23:39:50.444Z,100689.06
2023-05-14T23:42:17.101Z,100683.00
2023-05-14T23:44:43.756Z,100677.72
2023-05-14T23:47:10.359Z,100670.72
2023-05-14T23:49:37.489Z,100676.81
2023-05-14T23:52:04.361Z,100668.09
2023-05-14T23:54:30.904Z,100676.84
2023-05-14T23:56:57.563Z,100669.03
2023-05-14T23:59:24.118Z,100659.44
